sensor_id;sensor_type;location;lat;lon;timestamp;temperature;humidity
12700;DHT22;6414;49.570;6.060;2023-04-08T00:01:25;5.30;99.90
12700;DHT22;6414;49.570;6.060;2023-04-08T00:04:11;5.10;99.90
12700;DHT22;6414;49.570;6.060;2023-04-08T00:06:57;4.90;99.90
12700;DHT22;6414;49.570;6.060;2023-04-08T00:09:44;5.00;99.90
12700;DHT22;6414;49.570;6.060;2023-04-08T00:12:30;5.00;99.90
12700;DHT22;6414;49.570;6.060;2023-04-08T00:15:17;5.00;99.90
12700;DHT22;6414;49.570;6.060;2023-04-08T00:18:03;5.00;99.90
12700;DHT22;6414;49.570;6.060;2023-04-08T00:20:50;5.00;99.90
12700;DHT22;6414;49.570;6.060;2023-04-08T00:23:36;5.20;99.90
12700;DHT22;6414;49.570;6.060;2023-04-08T00:26:22;5.20;99.90
12700;DHT22;6414;49.570;6.060;2023-04-08T00:29:09;5.20;99.90
12700;DHT22;6414;49.570;6.060;2023-04-08T00:31:55;5.20;99.90
12700;DHT22;6414;49.570;6.060;2023-04-08T00:34:41;5.40;99.90
12700;DHT22;6414;49.570;6.060;2023-04-08T00:37:27;5.40;99.90
12700;DHT22;6414;49.570;6.060;2023-04-08T00:40:13;5.50;99.90
12700;DHT22;6414;49.570;6.060;2023-04-08T00:42:59;5.40;99.90
12700;DHT22;6414;49.570;6.060;2023-04-08T00:45:46;4.90;99.90
12700;DHT22;6414;49.570;6.060;2023-04-08T00:48:32;4.90;99.90
12700;DHT22;6414;49.570;6.060;2023-04-08T00:51:18;5.10;99.90
12700;DHT22;6414;49.570;6.060;2023-04-08T00:54:04;5.20;99.90
12700;DHT22;6414;49.570;6.060;2023-04-08T00:56:51;5.10;99.90
12700;DHT22;6414;49.570;6.060;2023-04-08T00:59:36;5.30;99.90
12700;DHT22;6414;49.570;6.060;2023-04-08T01:05:13;5.60;99.90
12700;DHT22;6414;49.570;6.060;2023-04-08T01:07:57;5.60;99.90
12700;DHT22;6414;49.570;6.060;2023-04-08T01:10:45;5.90;99.90
12700;DHT22;6414;49.570;6.060;2023-04-08T01:13:33;5.90;99.90
12700;DHT22;6414;49.570;6.060;2023-04-08T01:16:16;5.60;99.90
12700;DHT22;6414;49.570;6.060;2023-04-08T01:19:04;5.40;99.90
12700;DHT22;6414;49.570;6.060;2023-04-08T01:21:49;5.40;99.90
12700;DHT22;6414;49.570;6.060;2023-04-08T01:24:35;5.30;99.90
12700;DHT22;6414;49.570;6.060;2023-04-08T01:27:21;5.00;99.90
12700;DHT22;6414;49.570;6.060;2023-04-08T01:30:08;5.00;99.90
12700;DHT22;6414;49.570;6.060;2023-04-08T01:32:53;5.00;99.90
12700;DHT22;6414;49.570;6.060;2023-04-08T01:35:40;4.90;99.90
12700;DHT22;6414;49.570;6.060;2023-04-08T01:38:26;4.80;99.90
12700;DHT22;6414;49.570;6.060;2023-04-08T01:41:12;4.80;99.90
12700;DHT22;6414;49.570;6.060;2023-04-08T01:43:59;4.80;99.90
12700;DHT22;6414;49.570;6.060;2023-04-08T01:46:45;4.80;99.90
12700;DHT22;6414;49.570;6.060;2023-04-08T01:49:32;4.70;99.90
12700;DHT22;6414;49.570;6.060;2023-04-08T01:52:22;4.60;99.90
12700;DHT22;6414;49.570;6.060;2023-04-08T01:55:04;4.50;99.90
12700;DHT22;6414;49.570;6.060;2023-04-08T01:57:51;4.50;99.90
12700;DHT22;6414;49.570;6.060;2023-04-08T02:00:36;4.50;99.90
12700;DHT22;6414;49.570;6.060;2023-04-08T02:03:23;4.60;99.90
12700;DHT22;6414;49.570;6.060;2023-04-08T02:06:09;4.60;99.90
12700;DHT22;6414;49.570;6.060;2023-04-08T02:08:56;4.90;99.90
12700;DHT22;6414;49.570;6.060;2023-04-08T02:11:42;4.90;99.90
12700;DHT22;6414;49.570;6.060;2023-04-08T02:14:28;4.90;99.90
12700;DHT22;6414;49.570;6.060;2023-04-08T02:17:27;5.00;99.90
12700;DHT22;6414;49.570;6.060;2023-04-08T02:20:13;5.10;99.90
12700;DHT22;6414;49.570;6.060;2023-04-08T02:25:44;5.00;99.90
12700;DHT22;6414;49.570;6.060;2023-04-08T02:28:31;4.80;99.90
12700;DHT22;6414;49.570;6.060;2023-04-08T02:31:17;4.90;99.90
12700;DHT22;6414;49.570;6.060;2023-04-08T02:34:03;4.90;99.90
12700;DHT22;6414;49.570;6.060;2023-04-08T02:36:50;5.10;99.90
12700;DHT22;6414;49.570;6.060;2023-04-08T02:39:36;5.10;99.90
12700;DHT22;6414;49.570;6.060;2023-04-08T02:42:23;5.00;99.90
12700;DHT22;6414;49.570;6.060;2023-04-08T02:45:10;5.00;99.90
12700;DHT22;6414;49.570;6.060;2023-04-08T02:47:57;4.80;99.90
12700;DHT22;6414;49.570;6.060;2023-04-08T02:50:43;4.80;99.90
12700;DHT22;6414;49.570;6.060;2023-04-08T02:53:29;4.80;99.90
12700;DHT22;6414;49.570;6.060;2023-04-08T02:56:15;4.70;99.90
12700;DHT22;6414;49.570;6.060;2023-04-08T02:59:01;4.70;99.90
12700;DHT22;6414;49.570;6.060;2023-04-08T03:01:48;4.70;99.90
12700;DHT22;6414;49.570;6.060;2023-04-08T03:04:35;4.80;99.90
12700;DHT22;6414;49.570;6.060;2023-04-08T03:07:22;4.70;99.90
12700;DHT22;6414;49.570;6.060;2023-04-08T03:10:08;4.70;99.90
12700;DHT22;6414;49.570;6.060;2023-04-08T03:12:54;4.60;99.90
12700;DHT22;6414;49.570;6.060;2023-04-08T03:15:41;4.50;99.90
12700;DHT22;6414;49.570;6.060;2023-04-08T03:18:27;4.50;99.90
12700;DHT22;6414;49.570;6.060;2023-04-08T03:21:14;4.60;99.90
12700;DHT22;6414;49.570;6.060;2023-04-08T03:24:00;4.50;99.90
12700;DHT22;6414;49.570;6.060;2023-04-08T03:26:46;4.50;99.90
12700;DHT22;6414;49.570;6.060;2023-04-08T03:29:32;4.30;99.90
12700;DHT22;6414;49.570;6.060;2023-04-08T03:32:18;4.30;99.90
12700;DHT22;6414;49.570;6.060;2023-04-08T03:35:04;4.40;99.90
12700;DHT22;6414;49.570;6.060;2023-04-08T03:37:50;4.50;99.90
12700;DHT22;6414;49.570;6.060;2023-04-08T03:40:36;4.30;99.90
12700;DHT22;6414;49.570;6.060;2023-04-08T03:43:22;4.30;99.90
12700;DHT22;6414;49.570;6.060;2023-04-08T03:46:08;4.40;99.90
12700;DHT22;6414;49.570;6.060;2023-04-08T03:48:54;4.30;99.90
12700;DHT22;6414;49.570;6.060;2023-04-08T03:51:40;4.10;99.90
12700;DHT22;6414;49.570;6.060;2023-04-08T03:54:27;4.00;99.90
12700;DHT22;6414;49.570;6.060;2023-04-08T03:57:14;4.10;99.90
12700;DHT22;6414;49.570;6.060;2023-04-08T04:00:00;3.90;99.90
12700;DHT22;6414;49.570;6.060;2023-04-08T04:02:46;3.90;99.90
12700;DHT22;6414;49.570;6.060;2023-04-08T04:05:32;3.80;99.90
12700;DHT22;6414;49.570;6.060;2023-04-08T04:08:19;3.60;99.90
12700;DHT22;6414;49.570;6.060;2023-04-08T04:11:05;3.50;99.90
12700;DHT22;6414;49.570;6.060;2023-04-08T04:13:52;3.60;99.90
12700;DHT22;6414;49.570;6.060;2023-04-08T04:16:38;3.60;99.90
12700;DHT22;6414;49.570;6.060;2023-04-08T04:19:24;3.60;99.90
12700;DHT22;6414;49.570;6.060;2023-04-08T04:22:11;3.60;99.90
12700;DHT22;6414;49.570;6.060;2023-04-08T04:24:57;3.70;99.90
12700;DHT22;6414;49.570;6.060;2023-04-08T04:27:44;3.50;99.90
12700;DHT22;6414;49.570;6.060;2023-04-08T04:30:30;3.40;99.90
12700;DHT22;6414;49.570;6.060;2023-04-08T04:33:17;3.40;99.90
12700;DHT22;6414;49.570;6.060;2023-04-08T04:36:03;3.40;99.90
12700;DHT22;6414;49.570;6.060;2023-04-08T04:38:50;3.30;99.90
12700;DHT22;6414;49.570;6.060;2023-04-08T04:41:36;3.30;99.90
12700;DHT22;6414;49.570;6.060;2023-04-08T04:44:22;3.10;99.90
12700;DHT22;6414;49.570;6.060;2023-04-08T04:47:09;3.10;99.90
12700;DHT22;6414;49.570;6.060;2023-04-08T04:49:55;3.00;99.90
12700;DHT22;6414;49.570;6.060;2023-04-08T04:52:41;2.90;99.90
12700;DHT22;6414;49.570;6.060;2023-04-08T04:55:28;2.80;99.90
12700;DHT22;6414;49.570;6.060;2023-04-08T04:58:14;2.80;99.90
12700;DHT22;6414;49.570;6.060;2023-04-08T05:01:00;2.80;99.90
12700;DHT22;6414;49.570;6.060;2023-04-08T05:03:46;2.80;99.90
12700;DHT22;6414;49.570;6.060;2023-04-08T05:06:33;2.80;99.90
12700;DHT22;6414;49.570;6.060;2023-04-08T05:09:19;2.90;99.90
12700;DHT22;6414;49.570;6.060;2023-04-08T05:12:05;2.80;99.90
12700;DHT22;6414;49.570;6.060;2023-04-08T05:14:52;2.80;99.90
12700;DHT22;6414;49.570;6.060;2023-04-08T05:17:38;2.80;99.90
12700;DHT22;6414;49.570;6.060;2023-04-08T05:20:24;2.90;99.90
12700;DHT22;6414;49.570;6.060;2023-04-08T05:23:10;2.80;99.90
12700;DHT22;6414;49.570;6.060;2023-04-08T05:25:56;2.90;99.90
12700;DHT22;6414;49.570;6.060;2023-04-08T05:28:42;2.80;99.90
12700;DHT22;6414;49.570;6.060;2023-04-08T05:31:29;2.90;99.90
12700;DHT22;6414;49.570;6.060;2023-04-08T05:34:14;2.90;99.90
12700;DHT22;6414;49.570;6.060;2023-04-08T05:37:01;2.90;99.90
12700;DHT22;6414;49.570;6.060;2023-04-08T05:39:47;2.90;99.90
12700;DHT22;6414;49.570;6.060;2023-04-08T05:42:33;2.80;99.90
12700;DHT22;6414;49.570;6.060;2023-04-08T05:45:21;2.90;99.90
12700;DHT22;6414;49.570;6.060;2023-04-08T05:48:08;2.80;99.90
12700;DHT22;6414;49.570;6.060;2023-04-08T05:50:54;2.90;99.90
12700;DHT22;6414;49.570;6.060;2023-04-08T05:53:40;2.90;99.90
12700;DHT22;6414;49.570;6.060;2023-04-08T05:56:27;2.90;99.90
12700;DHT22;6414;49.570;6.060;2023-04-08T05:59:14;2.90;99.90
12700;DHT22;6414;49.570;6.060;2023-04-08T06:02:00;2.90;99.90
12700;DHT22;6414;49.570;6.060;2023-04-08T06:04:47;3.20;99.90
12700;DHT22;6414;49.570;6.060;2023-04-08T06:07:33;3.20;99.90
12700;DHT22;6414;49.570;6.060;2023-04-08T06:10:19;3.20;99.90
12700;DHT22;6414;49.570;6.060;2023-04-08T06:13:05;3.30;99.90
12700;DHT22;6414;49.570;6.060;2023-04-08T06:15:52;3.50;99.90
12700;DHT22;6414;49.570;6.060;2023-04-08T06:18:38;3.70;99.90
12700;DHT22;6414;49.570;6.060;2023-04-08T06:21:25;3.90;99.90
12700;DHT22;6414;49.570;6.060;2023-04-08T06:24:11;3.90;99.90
12700;DHT22;6414;49.570;6.060;2023-04-08T06:26:57;4.00;99.90
12700;DHT22;6414;49.570;6.060;2023-04-08T06:29:43;4.10;99.90
12700;DHT22;6414;49.570;6.060;2023-04-08T06:32:29;4.20;99.90
12700;DHT22;6414;49.570;6.060;2023-04-08T06:35:15;4.20;99.90
12700;DHT22;6414;49.570;6.060;2023-04-08T06:38:01;4.20;99.90
12700;DHT22;6414;49.570;6.060;2023-04-08T06:40:48;4.50;99.90
12700;DHT22;6414;49.570;6.060;2023-04-08T06:43:34;4.40;99.90
12700;DHT22;6414;49.570;6.060;2023-04-08T06:46:21;4.60;99.90
12700;DHT22;6414;49.570;6.060;2023-04-08T06:49:06;4.60;99.90
12700;DHT22;6414;49.570;6.060;2023-04-08T06:51:53;4.80;99.90
12700;DHT22;6414;49.570;6.060;2023-04-08T06:54:39;4.80;99.90
12700;DHT22;6414;49.570;6.060;2023-04-08T06:57:25;4.90;99.90
12700;DHT22;6414;49.570;6.060;2023-04-08T07:00:11;5.00;99.90
12700;DHT22;6414;49.570;6.060;2023-04-08T07:02:58;5.20;99.90
12700;DHT22;6414;49.570;6.060;2023-04-08T07:05:45;5.20;99.90
12700;DHT22;6414;49.570;6.060;2023-04-08T07:08:32;5.40;99.90
12700;DHT22;6414;49.570;6.060;2023-04-08T07:11:18;5.40;99.90
12700;DHT22;6414;49.570;6.060;2023-04-08T07:14:04;5.50;99.90
12700;DHT22;6414;49.570;6.060;2023-04-08T07:16:50;5.50;99.90
12700;DHT22;6414;49.570;6.060;2023-04-08T07:19:37;5.70;99.90
12700;DHT22;6414;49.570;6.060;2023-04-08T07:22:23;5.70;99.90
12700;DHT22;6414;49.570;6.060;2023-04-08T07:25:09;5.80;99.90
12700;DHT22;6414;49.570;6.060;2023-04-08T07:27:55;5.90;99.90
12700;DHT22;6414;49.570;6.060;2023-04-08T07:30:41;6.00;99.90
12700;DHT22;6414;49.570;6.060;2023-04-08T07:33:27;6.10;99.90
12700;DHT22;6414;49.570;6.060;2023-04-08T07:36:14;6.30;99.90
12700;DHT22;6414;49.570;6.060;2023-04-08T07:39:00;6.20;99.90
12700;DHT22;6414;49.570;6.060;2023-04-08T07:41:46;6.20;99.90
12700;DHT22;6414;49.570;6.060;2023-04-08T07:44:32;6.30;99.90
12700;DHT22;6414;49.570;6.060;2023-04-08T07:47:18;6.60;99.90
12700;DHT22;6414;49.570;6.060;2023-04-08T07:50:04;6.80;99.90
12700;DHT22;6414;49.570;6.060;2023-04-08T07:52:50;7.10;99.90
12700;DHT22;6414;49.570;6.060;2023-04-08T07:55:36;7.20;99.90
12700;DHT22;6414;49.570;6.060;2023-04-08T07:58:22;7.20;99.90
12700;DHT22;6414;49.570;6.060;2023-04-08T08:01:19;7.40;99.90
12700;DHT22;6414;49.570;6.060;2023-04-08T08:04:04;7.40;99.90
12700;DHT22;6414;49.570;6.060;2023-04-08T08:06:50;7.30;99.90
12700;DHT22;6414;49.570;6.060;2023-04-08T08:09:37;7.60;99.90
12700;DHT22;6414;49.570;6.060;2023-04-08T08:12:23;7.70;99.90
12700;DHT22;6414;49.570;6.060;2023-04-08T08:15:09;7.90;99.90
12700;DHT22;6414;49.570;6.060;2023-04-08T08:17:56;8.10;99.90
12700;DHT22;6414;49.570;6.060;2023-04-08T08:20:43;8.20;99.90
12700;DHT22;6414;49.570;6.060;2023-04-08T08:23:28;8.20;99.90
12700;DHT22;6414;49.570;6.060;2023-04-08T08:26:15;7.70;99.90
12700;DHT22;6414;49.570;6.060;2023-04-08T08:29:02;7.60;99.90
12700;DHT22;6414;49.570;6.060;2023-04-08T08:31:48;7.70;99.90
12700;DHT22;6414;49.570;6.060;2023-04-08T08:34:34;7.80;99.90
12700;DHT22;6414;49.570;6.060;2023-04-08T08:37:21;8.10;99.90
12700;DHT22;6414;49.570;6.060;2023-04-08T08:40:07;8.10;99.90
12700;DHT22;6414;49.570;6.060;2023-04-08T08:42:53;7.90;99.90
12700;DHT22;6414;49.570;6.060;2023-04-08T08:45:39;8.00;99.90
12700;DHT22;6414;49.570;6.060;2023-04-08T08:48:25;8.20;99.90
12700;DHT22;6414;49.570;6.060;2023-04-08T08:51:12;8.30;99.90
12700;DHT22;6414;49.570;6.060;2023-04-08T08:54:02;8.30;99.90
12700;DHT22;6414;49.570;6.060;2023-04-08T08:56:47;8.60;99.90
12700;DHT22;6414;49.570;6.060;2023-04-08T08:59:33;8.80;99.90
12700;DHT22;6414;49.570;6.060;2023-04-08T09:02:23;8.70;99.90
12700;DHT22;6414;49.570;6.060;2023-04-08T09:05:08;8.30;99.90
12700;DHT22;6414;49.570;6.060;2023-04-08T09:07:55;8.50;99.90
12700;DHT22;6414;49.570;6.060;2023-04-08T09:10:41;9.10;99.90
12700;DHT22;6414;49.570;6.060;2023-04-08T09:13:33;9.50;99.90
12700;DHT22;6414;49.570;6.060;2023-04-08T09:16:13;9.80;99.90
12700;DHT22;6414;49.570;6.060;2023-04-08T09:19:08;10.50;99.90
12700;DHT22;6414;49.570;6.060;2023-04-08T09:22:07;10.00;99.90
12700;DHT22;6414;49.570;6.060;2023-04-08T09:24:50;10.30;99.90
12700;DHT22;6414;49.570;6.060;2023-04-08T09:27:36;10.10;99.90
12700;DHT22;6414;49.570;6.060;2023-04-08T09:30:23;10.10;99.90
12700;DHT22;6414;49.570;6.060;2023-04-08T09:33:08;9.60;99.90
12700;DHT22;6414;49.570;6.060;2023-04-08T09:35:55;10.40;99.90
12700;DHT22;6414;49.570;6.060;2023-04-08T09:38:45;11.10;99.90
12700;DHT22;6414;49.570;6.060;2023-04-08T09:41:27;10.50;99.90
12700;DHT22;6414;49.570;6.060;2023-04-08T09:44:13;11.00;99.90
12700;DHT22;6414;49.570;6.060;2023-04-08T09:47:17;10.90;99.90
12700;DHT22;6414;49.570;6.060;2023-04-08T09:49:54;10.30;99.90
12700;DHT22;6414;49.570;6.060;2023-04-08T09:52:44;10.00;99.90
12700;DHT22;6414;49.570;6.060;2023-04-08T09:55:29;9.90;99.90
12700;DHT22;6414;49.570;6.060;2023-04-08T09:58:17;9.60;99.90
12700;DHT22;6414;49.570;6.060;2023-04-08T10:01:02;9.70;99.90
12700;DHT22;6414;49.570;6.060;2023-04-08T10:03:50;9.40;99.90
12700;DHT22;6414;49.570;6.060;2023-04-08T10:06:35;9.30;99.90
12700;DHT22;6414;49.570;6.060;2023-04-08T10:09:21;9.40;99.90
12700;DHT22;6414;49.570;6.060;2023-04-08T10:12:07;9.40;99.90
12700;DHT22;6414;49.570;6.060;2023-04-08T10:15:22;9.70;99.90
12700;DHT22;6414;49.570;6.060;2023-04-08T10:20:56;9.70;99.90
12700;DHT22;6414;49.570;6.060;2023-04-08T10:23:58;10.20;99.90
12700;DHT22;6414;49.570;6.060;2023-04-08T10:26:41;10.60;99.90
12700;DHT22;6414;49.570;6.060;2023-04-08T10:32:26;10.60;99.90
12700;DHT22;6414;49.570;6.060;2023-04-08T10:35:12;10.70;99.90
12700;DHT22;6414;49.570;6.060;2023-04-08T10:37:59;10.70;99.90
12700;DHT22;6414;49.570;6.060;2023-04-08T10:40:46;10.60;99.90
12700;DHT22;6414;49.570;6.060;2023-04-08T10:43:35;10.80;99.90
12700;DHT22;6414;49.570;6.060;2023-04-08T10:46:20;10.50;99.90
12700;DHT22;6414;49.570;6.060;2023-04-08T10:49:07;10.40;99.90
12700;DHT22;6414;49.570;6.060;2023-04-08T10:51:53;10.40;99.90
12700;DHT22;6414;49.570;6.060;2023-04-08T10:54:45;10.80;99.90
12700;DHT22;6414;49.570;6.060;2023-04-08T10:57:26;10.80;99.90
12700;DHT22;6414;49.570;6.060;2023-04-08T11:00:16;11.40;99.90
12700;DHT22;6414;49.570;6.060;2023-04-08T11:03:02;11.40;99.90
12700;DHT22;6414;49.570;6.060;2023-04-08T11:05:48;11.70;99.90
12700;DHT22;6414;49.570;6.060;2023-04-08T11:08:34;11.60;99.90
12700;DHT22;6414;49.570;6.060;2023-04-08T11:11:20;11.20;99.90
12700;DHT22;6414;49.570;6.060;2023-04-08T11:14:07;11.20;99.90
12700;DHT22;6414;49.570;6.060;2023-04-08T11:16:53;11.30;99.90
12700;DHT22;6414;49.570;6.060;2023-04-08T11:19:39;11.70;99.90
12700;DHT22;6414;49.570;6.060;2023-04-08T11:22:25;11.20;99.90
12700;DHT22;6414;49.570;6.060;2023-04-08T11:25:11;11.70;99.90
12700;DHT22;6414;49.570;6.060;2023-04-08T11:27:57;11.80;28.10
12700;DHT22;6414;49.570;6.060;2023-04-08T11:30:43;11.20;1.00
12700;DHT22;6414;49.570;6.060;2023-04-08T11:33:33;11.00;3.50
12700;DHT22;6414;49.570;6.060;2023-04-08T11:36:18;11.40;98.90
12700;DHT22;6414;49.570;6.060;2023-04-08T11:39:10;11.80;99.90
12700;DHT22;6414;49.570;6.060;2023-04-08T11:41:57;11.50;1.00
12700;DHT22;6414;49.570;6.060;2023-04-08T11:44:43;11.70;1.00
12700;DHT22;6414;49.570;6.060;2023-04-08T11:47:33;11.70;1.00
12700;DHT22;6414;49.570;6.060;2023-04-08T11:50:23;11.70;1.00
12700;DHT22;6414;49.570;6.060;2023-04-08T11:53:24;11.70;1.00
12700;DHT22;6414;49.570;6.060;2023-04-08T11:56:20;11.80;1.00
12700;DHT22;6414;49.570;6.060;2023-04-08T11:59:05;11.70;1.00
12700;DHT22;6414;49.570;6.060;2023-04-08T12:01:51;11.50;1.00
12700;DHT22;6414;49.570;6.060;2023-04-08T12:04:37;11.60;1.00
12700;DHT22;6414;49.570;6.060;2023-04-08T12:07:24;11.80;1.00
12700;DHT22;6414;49.570;6.060;2023-04-08T12:10:10;12.00;1.00
12700;DHT22;6414;49.570;6.060;2023-04-08T12:12:57;12.50;99.90
12700;DHT22;6414;49.570;6.060;2023-04-08T12:15:43;12.50;99.90
12700;DHT22;6414;49.570;6.060;2023-04-08T12:18:30;13.20;1.00
12700;DHT22;6414;49.570;6.060;2023-04-08T12:21:15;13.20;1.00
12700;DHT22;6414;49.570;6.060;2023-04-08T12:24:02;13.30;1.00
12700;DHT22;6414;49.570;6.060;2023-04-08T12:26:48;13.50;1.00
12700;DHT22;6414;49.570;6.060;2023-04-08T12:29:34;12.20;62.30
12700;DHT22;6414;49.570;6.060;2023-04-08T12:32:20;11.80;1.00
12700;DHT22;6414;49.570;6.060;2023-04-08T12:35:06;11.60;99.90
12700;DHT22;6414;49.570;6.060;2023-04-08T12:37:53;11.40;99.90
12700;DHT22;6414;49.570;6.060;2023-04-08T12:40:40;11.50;99.90
12700;DHT22;6414;49.570;6.060;2023-04-08T12:43:26;11.40;99.90
12700;DHT22;6414;49.570;6.060;2023-04-08T12:46:13;11.70;92.60
12700;DHT22;6414;49.570;6.060;2023-04-08T12:48:59;11.70;52.70
12700;DHT22;6414;49.570;6.060;2023-04-08T12:51:46;12.20;1.00
12700;DHT22;6414;49.570;6.060;2023-04-08T12:54:33;12.10;1.00
12700;DHT22;6414;49.570;6.060;2023-04-08T12:57:19;12.10;99.90
12700;DHT22;6414;49.570;6.060;2023-04-08T13:00:06;12.10;99.90
12700;DHT22;6414;49.570;6.060;2023-04-08T13:02:52;12.00;99.90
12700;DHT22;6414;49.570;6.060;2023-04-08T13:05:38;12.20;99.90
12700;DHT22;6414;49.570;6.060;2023-04-08T13:08:24;12.40;1.00
12700;DHT22;6414;49.570;6.060;2023-04-08T13:11:11;13.00;1.00
12700;DHT22;6414;49.570;6.060;2023-04-08T13:13:56;12.80;94.20
12700;DHT22;6414;49.570;6.060;2023-04-08T13:16:42;12.70;1.00
12700;DHT22;6414;49.570;6.060;2023-04-08T13:19:29;12.60;99.90
12700;DHT22;6414;49.570;6.060;2023-04-08T13:22:14;12.50;1.00
12700;DHT22;6414;49.570;6.060;2023-04-08T13:25:01;12.80;99.90
12700;DHT22;6414;49.570;6.060;2023-04-08T13:27:47;12.70;99.90
12700;DHT22;6414;49.570;6.060;2023-04-08T13:30:33;12.40;99.90
12700;DHT22;6414;49.570;6.060;2023-04-08T13:33:20;12.50;1.00
12700;DHT22;6414;49.570;6.060;2023-04-08T13:36:07;12.40;54.90
12700;DHT22;6414;49.570;6.060;2023-04-08T13:38:53;12.40;50.30
12700;DHT22;6414;49.570;6.060;2023-04-08T13:41:39;12.60;1.00
12700;DHT22;6414;49.570;6.060;2023-04-08T13:44:25;12.70;1.00
12700;DHT22;6414;49.570;6.060;2023-04-08T13:47:11;12.50;99.90
12700;DHT22;6414;49.570;6.060;2023-04-08T13:49:57;12.50;99.90
12700;DHT22;6414;49.570;6.060;2023-04-08T13:52:43;12.40;99.90
12700;DHT22;6414;49.570;6.060;2023-04-08T13:55:30;12.60;1.00
12700;DHT22;6414;49.570;6.060;2023-04-08T13:58:16;12.60;1.00
12700;DHT22;6414;49.570;6.060;2023-04-08T14:01:02;12.50;1.00
12700;DHT22;6414;49.570;6.060;2023-04-08T14:03:49;12.50;99.90
12700;DHT22;6414;49.570;6.060;2023-04-08T14:06:35;12.60;99.90
12700;DHT22;6414;49.570;6.060;2023-04-08T14:09:21;12.40;1.00
12700;DHT22;6414;49.570;6.060;2023-04-08T14:12:08;12.40;99.90
12700;DHT22;6414;49.570;6.060;2023-04-08T14:14:54;12.40;99.90
12700;DHT22;6414;49.570;6.060;2023-04-08T14:17:40;12.50;99.90
12700;DHT22;6414;49.570;6.060;2023-04-08T14:20:26;12.40;1.00
12700;DHT22;6414;49.570;6.060;2023-04-08T14:23:12;12.60;99.90
12700;DHT22;6414;49.570;6.060;2023-04-08T14:25:58;12.70;99.90
12700;DHT22;6414;49.570;6.060;2023-04-08T14:28:44;12.50;1.00
12700;DHT22;6414;49.570;6.060;2023-04-08T14:31:31;12.40;1.00
12700;DHT22;6414;49.570;6.060;2023-04-08T14:34:18;12.40;1.00
12700;DHT22;6414;49.570;6.060;2023-04-08T14:37:04;12.40;1.00
12700;DHT22;6414;49.570;6.060;2023-04-08T14:39:50;12.30;1.00
12700;DHT22;6414;49.570;6.060;2023-04-08T14:42:36;12.30;1.00
12700;DHT22;6414;49.570;6.060;2023-04-08T14:45:22;12.40;1.00
12700;DHT22;6414;49.570;6.060;2023-04-08T14:48:08;12.40;40.00
12700;DHT22;6414;49.570;6.060;2023-04-08T14:50:55;12.40;1.00
12700;DHT22;6414;49.570;6.060;2023-04-08T14:53:41;12.40;6.00
12700;DHT22;6414;49.570;6.060;2023-04-08T14:56:27;12.30;1.00
12700;DHT22;6414;49.570;6.060;2023-04-08T14:59:15;12.20;50.00
12700;DHT22;6414;49.570;6.060;2023-04-08T15:02:01;12.20;49.60
12700;DHT22;6414;49.570;6.060;2023-04-08T15:04:48;12.30;99.90
12700;DHT22;6414;49.570;6.060;2023-04-08T15:07:35;12.30;1.00
12700;DHT22;6414;49.570;6.060;2023-04-08T15:10:22;12.30;1.00
12700;DHT22;6414;49.570;6.060;2023-04-08T15:13:08;12.30;1.00
12700;DHT22;6414;49.570;6.060;2023-04-08T15:15:54;12.40;1.00
12700;DHT22;6414;49.570;6.060;2023-04-08T15:18:40;12.40;1.00
12700;DHT22;6414;49.570;6.060;2023-04-08T15:21:26;12.50;1.00
12700;DHT22;6414;49.570;6.060;2023-04-08T15:24:13;12.50;1.00
12700;DHT22;6414;49.570;6.060;2023-04-08T15:27:00;12.60;1.00
12700;DHT22;6414;49.570;6.060;2023-04-08T15:29:46;12.50;1.00
12700;DHT22;6414;49.570;6.060;2023-04-08T15:32:32;12.50;1.00
12700;DHT22;6414;49.570;6.060;2023-04-08T15:35:18;12.50;1.00
12700;DHT22;6414;49.570;6.060;2023-04-08T15:38:04;12.50;93.90
12700;DHT22;6414;49.570;6.060;2023-04-08T15:40:50;12.50;1.00
12700;DHT22;6414;49.570;6.060;2023-04-08T15:43:36;12.70;99.90
12700;DHT22;6414;49.570;6.060;2023-04-08T15:46:22;12.60;99.90
12700;DHT22;6414;49.570;6.060;2023-04-08T15:49:08;12.60;99.90
12700;DHT22;6414;49.570;6.060;2023-04-08T15:51:55;12.40;99.90
12700;DHT22;6414;49.570;6.060;2023-04-08T15:54:41;12.40;99.90
12700;DHT22;6414;49.570;6.060;2023-04-08T15:57:28;12.60;99.90
12700;DHT22;6414;49.570;6.060;2023-04-08T16:00:14;12.60;99.90
12700;DHT22;6414;49.570;6.060;2023-04-08T16:03:00;12.60;1.00
12700;DHT22;6414;49.570;6.060;2023-04-08T16:05:46;12.50;1.00
12700;DHT22;6414;49.570;6.060;2023-04-08T16:08:32;12.40;1.00
12700;DHT22;6414;49.570;6.060;2023-04-08T16:11:18;12.40;1.00
12700;DHT22;6414;49.570;6.060;2023-04-08T16:14:04;12.40;1.00
12700;DHT22;6414;49.570;6.060;2023-04-08T16:16:51;12.50;99.90
12700;DHT22;6414;49.570;6.060;2023-04-08T16:19:38;12.40;1.00
12700;DHT22;6414;49.570;6.060;2023-04-08T16:22:24;12.40;1.00
12700;DHT22;6414;49.570;6.060;2023-04-08T16:25:10;12.40;1.00
12700;DHT22;6414;49.570;6.060;2023-04-08T16:27:56;12.30;99.90
12700;DHT22;6414;49.570;6.060;2023-04-08T16:30:42;12.30;1.00
12700;DHT22;6414;49.570;6.060;2023-04-08T16:33:28;12.30;99.90
12700;DHT22;6414;49.570;6.060;2023-04-08T16:36:15;12.40;99.90
12700;DHT22;6414;49.570;6.060;2023-04-08T16:39:02;12.40;99.90
12700;DHT22;6414;49.570;6.060;2023-04-08T16:41:48;12.40;99.90
12700;DHT22;6414;49.570;6.060;2023-04-08T16:44:34;12.40;1.00
12700;DHT22;6414;49.570;6.060;2023-04-08T16:47:20;12.30;99.90
12700;DHT22;6414;49.570;6.060;2023-04-08T16:50:07;12.20;99.90
12700;DHT22;6414;49.570;6.060;2023-04-08T16:52:53;12.20;99.90
12700;DHT22;6414;49.570;6.060;2023-04-08T16:55:39;12.10;99.90
12700;DHT22;6414;49.570;6.060;2023-04-08T16:58:25;12.10;1.00
12700;DHT22;6414;49.570;6.060;2023-04-08T17:01:12;12.00;1.00
12700;DHT22;6414;49.570;6.060;2023-04-08T17:03:58;12.00;1.00
12700;DHT22;6414;49.570;6.060;2023-04-08T17:06:45;12.00;1.00
12700;DHT22;6414;49.570;6.060;2023-04-08T17:09:31;11.90;1.00
12700;DHT22;6414;49.570;6.060;2023-04-08T17:12:17;11.90;99.90
12700;DHT22;6414;49.570;6.060;2023-04-08T17:15:04;11.80;99.90
12700;DHT22;6414;49.570;6.060;2023-04-08T17:17:50;11.80;99.90
12700;DHT22;6414;49.570;6.060;2023-04-08T17:20:37;11.80;99.90
12700;DHT22;6414;49.570;6.060;2023-04-08T17:23:23;11.80;99.90
12700;DHT22;6414;49.570;6.060;2023-04-08T17:26:09;11.80;99.90
12700;DHT22;6414;49.570;6.060;2023-04-08T17:28:55;11.80;99.90
12700;DHT22;6414;49.570;6.060;2023-04-08T17:31:42;11.70;26.20
12700;DHT22;6414;49.570;6.060;2023-04-08T17:34:28;11.70;25.00
12700;DHT22;6414;49.570;6.060;2023-04-08T17:37:14;11.70;99.90
12700;DHT22;6414;49.570;6.060;2023-04-08T17:40:01;11.60;99.90
12700;DHT22;6414;49.570;6.060;2023-04-08T17:42:47;11.60;99.90
12700;DHT22;6414;49.570;6.060;2023-04-08T17:45:33;11.60;98.30
12700;DHT22;6414;49.570;6.060;2023-04-08T17:48:19;11.70;99.90
12700;DHT22;6414;49.570;6.060;2023-04-08T17:51:05;11.60;99.90
12700;DHT22;6414;49.570;6.060;2023-04-08T17:53:52;11.60;99.90
12700;DHT22;6414;49.570;6.060;2023-04-08T17:56:38;11.50;99.90
12700;DHT22;6414;49.570;6.060;2023-04-08T17:59:24;11.40;1.00
12700;DHT22;6414;49.570;6.060;2023-04-08T18:02:11;11.40;1.00
12700;DHT22;6414;49.570;6.060;2023-04-08T18:04:57;11.30;99.90
12700;DHT22;6414;49.570;6.060;2023-04-08T18:07:43;11.20;1.00
12700;DHT22;6414;49.570;6.060;2023-04-08T18:10:30;11.10;1.00
12700;DHT22;6414;49.570;6.060;2023-04-08T18:13:16;11.10;1.00